sensor_id;sensor_type;location;lat;lon;timestamp;P1;durP1;ratioP1;P2;durP2;ratioP2
17852;SDS011;9052;53.494;14.376;2023-05-15T00:01:00;26.43;;;14.50;;
17852;SDS011;9052;53.494;14.376;2023-05-15T00:03:27;33.33;;;16.70;;
17852;SDS011;9052;53.494;14.376;2023-05-15T00:05:54;39.13;;;19.63;;
17852;SDS011;9052;53.494;14.376;2023-05-15T00:08:20;29.07;;;16.20;;
17852;SDS011;9052;53.494;14.376;2023-05-15T00:10:47;21.60;;;13.67;;
17852;SDS011;9052;53.494;14.376;2023-05-15T00:13:15;15.03;;;11.20;;
17852;SDS011;9052;53.494;14.376;2023-05-15T00:15:42;11.80;;;10.60;;
17852;SDS011;9052;53.494;14.376;2023-05-15T00:18:08;10.80;;;9.80;;
17852;SDS011;9052;53.494;14.376;2023-05-15T00:20:35;14.67;;;10.67;;
17852;SDS011;9052;53.494;14.376;2023-05-15T00:23:02;27.03;;;17.00;;
17852;SDS011;9052;53.494;14.376;2023-05-15T00:25:28;21.20;;;13.97;;
17852;SDS011;9052;53.494;14.376;2023-05-15T00:27:55;13.60;;;10.13;;
17852;SDS011;9052;53.494;14.376;2023-05-15T00:30:23;17.43;;;11.07;;
17852;SDS011;9052;53.494;14.376;2023-05-15T00:32:49;11.20;;;10.00;;
17852;SDS011;9052;53.494;14.376;2023-05-15T00:35:16;12.83;;;11.20;;
17852;SDS011;9052;53.494;14.376;2023-05-15T00:37:43;13.43;;;11.80;;
17852;SDS011;9052;53.494;14.376;2023-05-15T00:40:10;13.47;;;11.20;;
17852;SDS011;9052;53.494;14.376;2023-05-15T00:42:37;20.00;;;13.47;;
17852;SDS011;9052;53.494;14.376;2023-05-15T00:45:05;53.40;;;23.20;;
17852;SDS011;9052;53.494;14.376;2023-05-15T00:47:34;32.53;;;19.90;;
17852;SDS011;9052;53.494;14.376;2023-05-15T00:50:01;18.90;;;12.40;;
17852;SDS011;9052;53.494;14.376;2023-05-15T00:52:28;13.53;;;10.53;;
17852;SDS011;9052;53.494;14.376;2023-05-15T00:54:55;22.53;;;12.70;;
17852;SDS011;9052;53.494;14.376;2023-05-15T00:57:21;11.20;;;10.00;;
17852;SDS011;9052;53.494;14.376;2023-05-15T00:59:49;18.53;;;12.00;;
17852;SDS011;9052;53.494;14.376;2023-05-15T01:02:17;16.10;;;11.83;;
17852;SDS011;9052;53.494;14.376;2023-05-15T01:04:46;17.90;;;9.93;;
17852;SDS011;9052;53.494;14.376;2023-05-15T01:07:13;12.13;;;10.93;;
17852;SDS011;9052;53.494;14.376;2023-05-15T01:09:40;16.40;;;11.63;;
17852;SDS011;9052;53.494;14.376;2023-05-15T01:12:07;10.87;;;9.87;;
17852;SDS011;9052;53.494;14.376;2023-05-15T01:14:34;14.63;;;11.50;;
17852;SDS011;9052;53.494;14.376;2023-05-15T01:17:01;13.67;;;11.90;;
17852;SDS011;9052;53.494;14.376;2023-05-15T01:19:27;17.77;;;12.47;;
17852;SDS011;9052;53.494;14.376;2023-05-15T01:24:46;14.40;;;11.07;;
17852;SDS011;9052;53.494;14.376;2023-05-15T01:27:19;12.93;;;9.73;;
17852;SDS011;9052;53.494;14.376;2023-05-15T01:29:54;15.07;;;10.60;;
17852;SDS011;9052;53.494;14.376;2023-05-15T01:32:23;10.10;;;9.20;;
17852;SDS011;9052;53.494;14.376;2023-05-15T01:34:52;14.83;;;11.37;;
17852;SDS011;9052;53.494;14.376;2023-05-15T01:37:20;14.50;;;10.17;;
17852;SDS011;9052;53.494;14.376;2023-05-15T01:39:48;13.43;;;11.93;;
17852;SDS011;9052;53.494;14.376;2023-05-15T01:42:15;12.93;;;11.30;;
17852;SDS011;9052;53.494;14.376;2023-05-15T01:44:48;12.37;;;11.10;;
17852;SDS011;9052;53.494;14.376;2023-05-15T01:47:17;13.67;;;11.90;;
17852;SDS011;9052;53.494;14.376;2023-05-15T01:49:45;11.70;;;10.60;;
17852;SDS011;9052;53.494;14.376;2023-05-15T01:52:15;10.70;;;9.63;;
17852;SDS011;9052;53.494;14.376;2023-05-15T01:54:42;14.23;;;11.30;;
17852;SDS011;9052;53.494;14.376;2023-05-15T01:57:09;13.80;;;10.70;;
17852;SDS011;9052;53.494;14.376;2023-05-15T01:59:37;16.10;;;13.73;;
17852;SDS011;9052;53.494;14.376;2023-05-15T02:02:05;15.57;;;12.60;;
17852;SDS011;9052;53.494;14.376;2023-05-15T02:04:32;13.47;;;12.07;;
17852;SDS011;9052;53.494;14.376;2023-05-15T02:06:59;18.50;;;12.47;;
17852;SDS011;9052;53.494;14.376;2023-05-15T02:09:26;16.73;;;13.00;;
17852;SDS011;9052;53.494;14.376;2023-05-15T02:11:53;15.23;;;12.20;;
17852;SDS011;9052;53.494;14.376;2023-05-15T02:14:20;12.33;;;11.13;;
17852;SDS011;9052;53.494;14.376;2023-05-15T02:16:48;17.23;;;12.13;;
17852;SDS011;9052;53.494;14.376;2023-05-15T02:19:16;13.07;;;11.30;;
17852;SDS011;9052;53.494;14.376;2023-05-15T02:21:43;12.90;;;11.70;;
17852;SDS011;9052;53.494;14.376;2023-05-15T02:24:09;12.60;;;11.30;;
17852;SDS011;9052;53.494;14.376;2023-05-15T02:26:38;49.53;;;25.00;;
17852;SDS011;9052;53.494;14.376;2023-05-15T02:29:09;53.50;;;25.70;;
17852;SDS011;9052;53.494;14.376;2023-05-15T02:31:39;32.13;;;19.70;;
17852;SDS011;9052;53.494;14.376;2023-05-15T02:34:11;20.90;;;13.00;;
17852;SDS011;9052;53.494;14.376;2023-05-15T02:36:40;16.20;;;11.57;;
17852;SDS011;9052;53.494;14.376;2023-05-15T02:39:10;12.23;;;10.33;;
17852;SDS011;9052;53.494;14.376;2023-05-15T02:41:36;12.50;;;10.70;;
17852;SDS011;9052;53.494;14.376;2023-05-15T02:44:03;11.87;;;10.67;;
17852;SDS011;9052;53.494;14.376;2023-05-15T02:46:30;11.73;;;10.53;;
17852;SDS011;9052;53.494;14.376;2023-05-15T02:48:57;17.73;;;12.57;;
17852;SDS011;9052;53.494;14.376;2023-05-15T02:51:24;15.97;;;12.67;;
17852;SDS011;9052;53.494;14.376;2023-05-15T02:53:52;14.27;;;10.97;;
17852;SDS011;9052;53.494;14.376;2023-05-15T02:56:20;13.70;;;12.33;;
17852;SDS011;9052;53.494;14.376;2023-05-15T02:58:47;15.33;;;11.77;;
17852;SDS011;9052;53.494;14.376;2023-05-15T03:01:13;16.83;;;11.83;;
17852;SDS011;9052;53.494;14.376;2023-05-15T03:03:40;11.30;;;10.10;;
17852;SDS011;9052;53.494;14.376;2023-05-15T03:06:07;13.40;;;9.57;;
17852;SDS011;9052;53.494;14.376;2023-05-15T03:08:33;10.40;;;9.40;;
17852;SDS011;9052;53.494;14.376;2023-05-15T03:11:02;10.30;;;9.30;;
17852;SDS011;9052;53.494;14.376;2023-05-15T03:13:28;10.30;;;9.30;;
17852;SDS011;9052;53.494;14.376;2023-05-15T03:15:55;10.00;;;9.00;;
17852;SDS011;9052;53.494;14.376;2023-05-15T03:18:21;10.07;;;8.73;;
17852;SDS011;9052;53.494;14.376;2023-05-15T03:20:51;9.60;;;8.60;;
17852;SDS011;9052;53.494;14.376;2023-05-15T03:23:18;8.90;;;8.00;;
17852;SDS011;9052;53.494;14.376;2023-05-15T03:25:45;9.57;;;8.67;;
17852;SDS011;9052;53.494;14.376;2023-05-15T03:28:14;10.13;;;9.13;;
17852;SDS011;9052;53.494;14.376;2023-05-15T03:30:42;9.80;;;8.97;;
17852;SDS011;9052;53.494;14.376;2023-05-15T03:33:09;9.83;;;8.93;;
17852;SDS011;9052;53.494;14.376;2023-05-15T03:35:36;10.70;;;9.23;;
17852;SDS011;9052;53.494;14.376;2023-05-15T03:38:02;12.20;;;11.10;;
17852;SDS011;9052;53.494;14.376;2023-05-15T03:40:29;10.80;;;9.90;;
17852;SDS011;9052;53.494;14.376;2023-05-15T03:42:55;14.60;;;10.23;;
17852;SDS011;9052;53.494;14.376;2023-05-15T03:45:23;10.90;;;9.80;;
17852;SDS011;9052;53.494;14.376;2023-05-15T03:47:50;10.47;;;9.47;;
17852;SDS011;9052;53.494;14.376;2023-05-15T03:50:17;9.07;;;8.17;;
17852;SDS011;9052;53.494;14.376;2023-05-15T03:52:43;10.13;;;8.77;;
17852;SDS011;9052;53.494;14.376;2023-05-15T03:55:10;10.33;;;9.30;;
17852;SDS011;9052;53.494;14.376;2023-05-15T03:57:39;10.83;;;9.73;;
17852;SDS011;9052;53.494;14.376;2023-05-15T04:00:07;10.67;;;9.57;;
17852;SDS011;9052;53.494;14.376;2023-05-15T04:02:36;11.13;;;10.13;;
17852;SDS011;9052;53.494;14.376;2023-05-15T04:05:03;13.20;;;9.80;;
17852;SDS011;9052;53.494;14.376;2023-05-15T04:07:31;11.43;;;10.40;;
17852;SDS011;9052;53.494;14.376;2023-05-15T04:09:58;13.83;;;11.03;;
17852;SDS011;9052;53.494;14.376;2023-05-15T04:12:26;10.87;;;9.37;;
17852;SDS011;9052;53.494;14.376;2023-05-15T04:14:54;11.77;;;10.70;;
17852;SDS011;9052;53.494;14.376;2023-05-15T04:17:20;13.67;;;10.43;;
17852;SDS011;9052;53.494;14.376;2023-05-15T04:19:48;11.63;;;10.63;;
17852;SDS011;9052;53.494;14.376;2023-05-15T04:22:15;11.30;;;9.20;;
17852;SDS011;9052;53.494;14.376;2023-05-15T04:24:41;13.03;;;9.97;;
17852;SDS011;9052;53.494;14.376;2023-05-15T04:27:08;13.00;;;10.57;;
17852;SDS011;9052;53.494;14.376;2023-05-15T04:29:34;11.97;;;10.77;;
17852;SDS011;9052;53.494;14.376;2023-05-15T04:32:01;12.10;;;10.87;;
17852;SDS011;9052;53.494;14.376;2023-05-15T04:34:28;13.30;;;12.00;;
17852;SDS011;9052;53.494;14.376;2023-05-15T04:36:55;12.67;;;11.33;;
17852;SDS011;9052;53.494;14.376;2023-05-15T04:39:22;16.97;;;12.30;;
17852;SDS011;9052;53.494;14.376;2023-05-15T04:41:49;15.57;;;13.17;;
17852;SDS011;9052;53.494;14.376;2023-05-15T04:44:15;16.00;;;14.40;;
17852;SDS011;9052;53.494;14.376;2023-05-15T04:46:42;18.77;;;16.10;;
17852;SDS011;9052;53.494;14.376;2023-05-15T04:49:10;15.97;;;14.33;;
17852;SDS011;9052;53.494;14.376;2023-05-15T04:51:37;18.27;;;16.33;;
17852;SDS011;9052;53.494;14.376;2023-05-15T04:54:06;18.93;;;16.67;;
17852;SDS011;9052;53.494;14.376;2023-05-15T04:56:33;17.80;;;16.00;;
17852;SDS011;9052;53.494;14.376;2023-05-15T04:59:00;19.83;;;13.87;;
17852;SDS011;9052;53.494;14.376;2023-05-15T05:01:27;19.40;;;14.40;;
17852;SDS011;9052;53.494;14.376;2023-05-15T05:03:53;18.63;;;15.03;;
17852;SDS011;9052;53.494;14.376;2023-05-15T05:06:20;19.03;;;13.47;;
17852;SDS011;9052;53.494;14.376;2023-05-15T05:08:46;26.60;;;16.57;;
17852;SDS011;9052;53.494;14.376;2023-05-15T05:11:14;19.80;;;16.53;;
17852;SDS011;9052;53.494;14.376;2023-05-15T05:13:41;19.67;;;15.70;;
17852;SDS011;9052;53.494;14.376;2023-05-15T05:16:07;15.10;;;13.70;;
17852;SDS011;9052;53.494;14.376;2023-05-15T05:18:34;16.20;;;14.63;;
17852;SDS011;9052;53.494;14.376;2023-05-15T05:21:01;15.20;;;13.60;;
17852;SDS011;9052;53.494;14.376;2023-05-15T05:23:28;14.70;;;13.17;;
17852;SDS011;9052;53.494;14.376;2023-05-15T05:25:55;23.80;;;14.87;;
17852;SDS011;9052;53.494;14.376;2023-05-15T05:28:23;15.57;;;14.07;;
17852;SDS011;9052;53.494;14.376;2023-05-15T05:30:50;20.73;;;11.90;;
17852;SDS011;9052;53.494;14.376;2023-05-15T05:33:16;11.57;;;10.37;;
17852;SDS011;9052;53.494;14.376;2023-05-15T05:35:43;11.87;;;10.57;;
17852;SDS011;9052;53.494;14.376;2023-05-15T05:38:10;22.93;;;11.10;;
17852;SDS011;9052;53.494;14.376;2023-05-15T05:40:37;12.30;;;11.00;;
17852;SDS011;9052;53.494;14.376;2023-05-15T05:43:03;13.70;;;11.03;;
17852;SDS011;9052;53.494;14.376;2023-05-15T05:45:31;14.23;;;10.50;;
17852;SDS011;9052;53.494;14.376;2023-05-15T05:47:58;20.10;;;11.73;;
17852;SDS011;9052;53.494;14.376;2023-05-15T05:50:24;30.10;;;11.27;;
17852;SDS011;9052;53.494;14.376;2023-05-15T05:52:51;11.40;;;9.83;;
17852;SDS011;9052;53.494;14.376;2023-05-15T05:55:17;17.23;;;10.53;;
17852;SDS011;9052;53.494;14.376;2023-05-15T05:57:44;16.00;;;10.77;;
17852;SDS011;9052;53.494;14.376;2023-05-15T06:00:11;24.50;;;11.40;;
17852;SDS011;9052;53.494;14.376;2023-05-15T06:02:39;11.60;;;10.33;;
17852;SDS011;9052;53.494;14.376;2023-05-15T06:05:06;22.20;;;10.73;;
17852;SDS011;9052;53.494;14.376;2023-05-15T06:07:33;23.23;;;10.87;;
17852;SDS011;9052;53.494;14.376;2023-05-15T06:10:00;12.43;;;9.90;;
17852;SDS011;9052;53.494;14.376;2023-05-15T06:12:26;24.27;;;10.63;;
17852;SDS011;9052;53.494;14.376;2023-05-15T06:14:53;11.80;;;9.70;;
17852;SDS011;9052;53.494;14.376;2023-05-15T06:17:20;12.03;;;10.13;;
17852;SDS011;9052;53.494;14.376;2023-05-15T06:19:48;15.53;;;10.47;;
17852;SDS011;9052;53.494;14.376;2023-05-15T06:22:14;20.70;;;10.70;;
17852;SDS011;9052;53.494;14.376;2023-05-15T06:24:41;11.17;;;9.70;;
17852;SDS011;9052;53.494;14.376;2023-05-15T06:27:07;10.57;;;9.63;;
17852;SDS011;9052;53.494;14.376;2023-05-15T06:29:34;17.93;;;11.20;;
17852;SDS011;9052;53.494;14.376;2023-05-15T06:32:01;14.50;;;10.30;;
17852;SDS011;9052;53.494;14.376;2023-05-15T06:34:27;15.10;;;9.17;;
17852;SDS011;9052;53.494;14.376;2023-05-15T06:36:55;21.30;;;10.50;;
17852;SDS011;9052;53.494;14.376;2023-05-15T06:39:22;12.53;;;11.03;;
17852;SDS011;9052;53.494;14.376;2023-05-15T06:41:48;18.33;;;11.00;;
17852;SDS011;9052;53.494;14.376;2023-05-15T06:44:15;14.27;;;11.30;;
17852;SDS011;9052;53.494;14.376;2023-05-15T06:46:41;12.93;;;11.63;;
17852;SDS011;9052;53.494;14.376;2023-05-15T06:49:08;18.07;;;12.97;;
17852;SDS011;9052;53.494;14.376;2023-05-15T06:51:35;26.27;;;12.90;;
17852;SDS011;9052;53.494;14.376;2023-05-15T06:54:03;13.20;;;11.90;;
17852;SDS011;9052;53.494;14.376;2023-05-15T06:56:29;13.93;;;12.53;;
17852;SDS011;9052;53.494;14.376;2023-05-15T06:58:56;25.43;;;13.70;;
17852;SDS011;9052;53.494;14.376;2023-05-15T07:01:22;22.20;;;15.83;;
17852;SDS011;9052;53.494;14.376;2023-05-15T07:03:49;24.03;;;15.80;;
17852;SDS011;9052;53.494;14.376;2023-05-15T07:06:15;15.73;;;13.63;;
17852;SDS011;9052;53.494;14.376;2023-05-15T07:08:42;27.90;;;15.87;;
17852;SDS011;9052;53.494;14.376;2023-05-15T07:11:10;28.90;;;15.30;;
17852;SDS011;9052;53.494;14.376;2023-05-15T07:13:37;14.77;;;13.20;;
17852;SDS011;9052;53.494;14.376;2023-05-15T07:16:04;18.23;;;13.90;;
17852;SDS011;9052;53.494;14.376;2023-05-15T07:18:30;19.77;;;15.20;;
17852;SDS011;9052;53.494;14.376;2023-05-15T07:20:57;15.23;;;13.60;;
17852;SDS011;9052;53.494;14.376;2023-05-15T07:23:23;15.73;;;14.10;;
17852;SDS011;9052;53.494;14.376;2023-05-15T07:25:51;17.07;;;13.13;;
17852;SDS011;9052;53.494;14.376;2023-05-15T07:28:19;20.50;;;12.37;;
17852;SDS011;9052;53.494;14.376;2023-05-15T07:30:46;14.47;;;12.10;;
17852;SDS011;9052;53.494;14.376;2023-05-15T07:33:12;14.67;;;10.60;;
17852;SDS011;9052;53.494;14.376;2023-05-15T07:35:39;11.43;;;9.77;;
17852;SDS011;9052;53.494;14.376;2023-05-15T07:38:05;11.40;;;10.20;;
17852;SDS011;9052;53.494;14.376;2023-05-15T07:40:32;10.33;;;9.33;;
17852;SDS011;9052;53.494;14.376;2023-05-15T07:42:59;11.80;;;9.10;;
17852;SDS011;9052;53.494;14.376;2023-05-15T07:45:26;10.50;;;9.40;;
17852;SDS011;9052;53.494;14.376;2023-05-15T07:47:54;15.03;;;9.37;;
17852;SDS011;9052;53.494;14.376;2023-05-15T07:50:21;9.43;;;8.43;;
17852;SDS011;9052;53.494;14.376;2023-05-15T07:52:48;8.77;;;7.97;;
17852;SDS011;9052;53.494;14.376;2023-05-15T07:55:14;10.80;;;8.77;;
17852;SDS011;9052;53.494;14.376;2023-05-15T07:57:41;11.50;;;8.50;;
17852;SDS011;9052;53.494;14.376;2023-05-15T08:00:08;13.97;;;8.10;;
17852;SDS011;9052;53.494;14.376;2023-05-15T08:02:38;7.60;;;6.30;;
17852;SDS011;9052;53.494;14.376;2023-05-15T08:05:05;21.73;;;6.37;;
17852;SDS011;9052;53.494;14.376;2023-05-15T08:07:33;9.60;;;6.93;;
17852;SDS011;9052;53.494;14.376;2023-05-15T08:10:00;7.60;;;5.53;;
17852;SDS011;9052;53.494;14.376;2023-05-15T08:12:28;9.93;;;5.67;;
17852;SDS011;9052;53.494;14.376;2023-05-15T08:14:55;9.43;;;5.87;;
17852;SDS011;9052;53.494;14.376;2023-05-15T08:17:22;6.40;;;4.70;;
17852;SDS011;9052;53.494;14.376;2023-05-15T08:19:50;6.67;;;4.53;;
17852;SDS011;9052;53.494;14.376;2023-05-15T08:22:16;6.53;;;5.50;;
17852;SDS011;9052;53.494;14.376;2023-05-15T08:24:44;5.07;;;4.57;;
17852;SDS011;9052;53.494;14.376;2023-05-15T08:27:10;4.60;;;4.23;;
17852;SDS011;9052;53.494;14.376;2023-05-15T08:29:37;5.40;;;4.90;;
17852;SDS011;9052;53.494;14.376;2023-05-15T08:32:04;8.40;;;4.63;;
17852;SDS011;9052;53.494;14.376;2023-05-15T08:34:31;6.07;;;4.63;;
17852;SDS011;9052;53.494;14.376;2023-05-15T08:36:59;5.00;;;4.60;;
17852;SDS011;9052;53.494;14.376;2023-05-15T08:39:26;6.53;;;4.73;;
17852;SDS011;9052;53.494;14.376;2023-05-15T08:41:55;3.67;;;3.37;;
17852;SDS011;9052;53.494;14.376;2023-05-15T08:44:22;4.03;;;3.63;;
17852;SDS011;9052;53.494;14.376;2023-05-15T08:46:49;5.40;;;3.70;;
17852;SDS011;9052;53.494;14.376;2023-05-15T08:49:18;7.87;;;5.63;;
17852;SDS011;9052;53.494;14.376;2023-05-15T08:51:45;4.57;;;3.60;;
17852;SDS011;9052;53.494;14.376;2023-05-15T08:54:13;5.60;;;3.50;;
17852;SDS011;9052;53.494;14.376;2023-05-15T08:56:41;7.77;;;3.50;;
17852;SDS011;9052;53.494;14.376;2023-05-15T08:59:07;4.30;;;3.90;;
17852;SDS011;9052;53.494;14.376;2023-05-15T09:01:34;3.90;;;3.40;;
17852;SDS011;9052;53.494;14.376;2023-05-15T09:04:01;3.60;;;3.30;;
17852;SDS011;9052;53.494;14.376;2023-05-15T09:06:28;4.50;;;4.10;;
17852;SDS011;9052;53.494;14.376;2023-05-15T09:08:55;6.90;;;4.23;;
17852;SDS011;9052;53.494;14.376;2023-05-15T09:11:25;3.90;;;3.50;;
17852;SDS011;9052;53.494;14.376;2023-05-15T09:13:52;4.10;;;3.27;;
17852;SDS011;9052;53.494;14.376;2023-05-15T09:16:19;7.40;;;4.60;;
17852;SDS011;9052;53.494;14.376;2023-05-15T09:18:45;3.90;;;3.53;;
17852;SDS011;9052;53.494;14.376;2023-05-15T09:21:22;5.63;;;3.50;;
17852;SDS011;9052;53.494;14.376;2023-05-15T09:23:49;5.10;;;3.63;;
17852;SDS011;9052;53.494;14.376;2023-05-15T09:26:16;5.30;;;4.10;;
17852;SDS011;9052;53.494;14.376;2023-05-15T09:28:44;5.80;;;4.17;;
17852;SDS011;9052;53.494;14.376;2023-05-15T09:31:11;4.60;;;4.20;;
17852;SDS011;9052;53.494;14.376;2023-05-15T09:33:39;5.53;;;4.20;;
17852;SDS011;9052;53.494;14.376;2023-05-15T09:36:06;4.67;;;4.27;;
17852;SDS011;9052;53.494;14.376;2023-05-15T09:38:34;7.17;;;4.30;;
17852;SDS011;9052;53.494;14.376;2023-05-15T09:41:01;21.07;;;4.37;;
17852;SDS011;9052;53.494;14.376;2023-05-15T09:43:28;4.10;;;3.67;;
17852;SDS011;9052;53.494;14.376;2023-05-15T09:45:56;8.40;;;4.67;;
17852;SDS011;9052;53.494;14.376;2023-05-15T09:48:23;11.83;;;4.70;;
17852;SDS011;9052;53.494;14.376;2023-05-15T09:50:49;15.90;;;4.60;;
17852;SDS011;9052;53.494;14.376;2023-05-15T09:53:16;5.90;;;4.57;;
17852;SDS011;9052;53.494;14.376;2023-05-15T09:55:43;8.50;;;4.13;;
17852;SDS011;9052;53.494;14.376;2023-05-15T09:58:10;9.70;;;4.10;;
17852;SDS011;9052;53.494;14.376;2023-05-15T10:00:37;6.53;;;4.00;;
17852;SDS011;9052;53.494;14.376;2023-05-15T10:03:06;9.60;;;4.03;;
17852;SDS011;9052;53.494;14.376;2023-05-15T10:05:34;9.40;;;3.57;;
17852;SDS011;9052;53.494;14.376;2023-05-15T10:08:00;3.40;;;3.00;;
17852;SDS011;9052;53.494;14.376;2023-05-15T10:10:28;3.30;;;3.00;;
17852;SDS011;9052;53.494;14.376;2023-05-15T10:12:56;13.80;;;2.83;;
17852;SDS011;9052;53.494;14.376;2023-05-15T10:15:24;4.00;;;3.00;;
17852;SDS011;9052;53.494;14.376;2023-05-15T10:17:51;5.23;;;3.23;;
17852;SDS011;9052;53.494;14.376;2023-05-15T10:20:19;5.77;;;3.20;;
17852;SDS011;9052;53.494;14.376;2023-05-15T10:22:47;4.43;;;2.73;;
17852;SDS011;9052;53.494;14.376;2023-05-15T10:25:15;3.43;;;3.13;;
17852;SDS011;9052;53.494;14.376;2023-05-15T10:27:42;3.33;;;3.00;;
17852;SDS011;9052;53.494;14.376;2023-05-15T10:30:08;6.10;;;3.30;;
17852;SDS011;9052;53.494;14.376;2023-05-15T10:32:36;5.00;;;3.33;;
17852;SDS011;9052;53.494;14.376;2023-05-15T10:35:03;4.30;;;3.90;;
17852;SDS011;9052;53.494;14.376;2023-05-15T10:37:32;4.20;;;3.17;;
17852;SDS011;9052;53.494;14.376;2023-05-15T10:40:00;3.90;;;3.60;;
17852;SDS011;9052;53.494;14.376;2023-05-15T10:42:27;3.50;;;3.27;;
17852;SDS011;9052;53.494;14.376;2023-05-15T10:44:54;5.03;;;3.90;;
17852;SDS011;9052;53.494;14.376;2023-05-15T10:47:24;5.13;;;3.83;;
17852;SDS011;9052;53.494;14.376;2023-05-15T10:49:50;12.20;;;4.40;;
17852;SDS011;9052;53.494;14.376;2023-05-15T10:52:17;8.53;;;5.03;;
17852;SDS011;9052;53.494;14.376;2023-05-15T10:54:45;7.03;;;3.93;;
17852;SDS011;9052;53.494;14.376;2023-05-15T10:57:13;5.87;;;4.40;;
17852;SDS011;9052;53.494;14.376;2023-05-15T10:59:39;5.40;;;4.60;;
17852;SDS011;9052;53.494;14.376;2023-05-15T11:02:19;6.80;;;4.73;;
17852;SDS011;9052;53.494;14.376;2023-05-15T11:04:46;5.57;;;5.07;;
17852;SDS011;9052;53.494;14.376;2023-05-15T11:07:13;7.53;;;5.77;;
17852;SDS011;9052;53.494;14.376;2023-05-15T11:09:39;10.97;;;5.90;;
17852;SDS011;9052;53.494;14.376;2023-05-15T11:12:08;7.70;;;5.77;;
17852;SDS011;9052;53.494;14.376;2023-05-15T11:14:36;6.00;;;5.40;;
17852;SDS011;9052;53.494;14.376;2023-05-15T11:17:03;5.00;;;4.60;;
17852;SDS011;9052;53.494;14.376;2023-05-15T11:19:31;6.60;;;4.60;;
17852;SDS011;9052;53.494;14.376;2023-05-15T11:21:59;5.90;;;4.43;;
17852;SDS011;9052;53.494;14.376;2023-05-15T11:24:26;6.80;;;4.53;;
17852;SDS011;9052;53.494;14.376;2023-05-15T11:26:57;3.73;;;3.40;;
17852;SDS011;9052;53.494;14.376;2023-05-15T11:29:25;5.17;;;3.70;;
17852;SDS011;9052;53.494;14.376;2023-05-15T11:31:52;5.67;;;4.17;;
17852;SDS011;9052;53.494;14.376;2023-05-15T11:34:27;6.53;;;4.60;;
17852;SDS011;9052;53.494;14.376;2023-05-15T11:36:54;6.10;;;3.80;;
17852;SDS011;9052;53.494;14.376;2023-05-15T11:39:22;4.73;;;4.33;;
17852;SDS011;9052;53.494;14.376;2023-05-15T11:41:50;8.63;;;4.83;;
17852;SDS011;9052;53.494;14.376;2023-05-15T11:44:18;6.57;;;5.90;;
17852;SDS011;9052;53.494;14.376;2023-05-15T11:46:46;7.17;;;6.03;;
17852;SDS011;9052;53.494;14.376;2023-05-15T11:49:13;6.73;;;5.00;;
17852;SDS011;9052;53.494;14.376;2023-05-15T11:51:40;6.23;;;4.33;;
17852;SDS011;9052;53.494;14.376;2023-05-15T11:54:08;5.60;;;5.17;;
17852;SDS011;9052;53.494;14.376;2023-05-15T11:56:39;35.80;;;5.80;;
17852;SDS011;9052;53.494;14.376;2023-05-15T11:59:08;5.93;;;5.37;;
17852;SDS011;9052;53.494;14.376;2023-05-15T12:01:39;5.90;;;5.40;;
17852;SDS011;9052;53.494;14.376;2023-05-15T12:04:17;9.80;;;5.83;;
17852;SDS011;9052;53.494;14.376;2023-05-15T12:06:44;4.67;;;4.27;;
17852;SDS011;9052;53.494;14.376;2023-05-15T12:09:15;9.03;;;5.60;;
17852;SDS011;9052;53.494;14.376;2023-05-15T12:11:47;12.57;;;5.20;;
17852;SDS011;9052;53.494;14.376;2023-05-15T12:14:13;6.10;;;5.60;;
17852;SDS011;9052;53.494;14.376;2023-05-15T12:16:40;11.93;;;6.67;;
17852;SDS011;9052;53.494;14.376;2023-05-15T12:19:07;7.63;;;6.90;;
17852;SDS011;9052;53.494;14.376;2023-05-15T12:21:36;7.73;;;7.13;;
17852;SDS011;9052;53.494;14.376;2023-05-15T12:24:09;7.77;;;6.70;;
17852;SDS011;9052;53.494;14.376;2023-05-15T12:26:36;12.47;;;7.43;;
17852;SDS011;9052;53.494;14.376;2023-05-15T12:29:03;9.83;;;8.40;;
17852;SDS011;9052;53.494;14.376;2023-05-15T12:31:30;14.87;;;13.23;;
17852;SDS011;9052;53.494;14.376;2023-05-15T12:33:56;23.90;;;17.80;;
17852;SDS011;9052;53.494;14.376;2023-05-15T12:36:23;48.70;;;29.03;;
17852;SDS011;9052;53.494;14.376;2023-05-15T12:38:55;21.37;;;14.77;;
17852;SDS011;9052;53.494;14.376;2023-05-15T12:41:25;18.60;;;11.77;;
17852;SDS011;9052;53.494;14.376;2023-05-15T12:43:51;12.60;;;9.73;;
17852;SDS011;9052;53.494;14.376;2023-05-15T12:46:20;8.50;;;7.70;;
17852;SDS011;9052;53.494;14.376;2023-05-15T12:48:47;8.73;;;7.30;;
17852;SDS011;9052;53.494;14.376;2023-05-15T12:51:15;8.30;;;7.50;;
17852;SDS011;9052;53.494;14.376;2023-05-15T12:53:41;6.97;;;6.27;;
17852;SDS011;9052;53.494;14.376;2023-05-15T12:56:09;8.00;;;5.87;;
17852;SDS011;9052;53.494;14.376;2023-05-15T12:58:41;11.63;;;5.57;;
17852;SDS011;9052;53.494;14.376;2023-05-15T13:01:07;5.87;;;5.47;;
17852;SDS011;9052;53.494;14.376;2023-05-15T13:03:34;9.50;;;5.70;;
17852;SDS011;9052;53.494;14.376;2023-05-15T13:06:01;9.60;;;5.60;;
17852;SDS011;9052;53.494;14.376;2023-05-15T13:08:28;6.60;;;5.87;;
17852;SDS011;9052;53.494;14.376;2023-05-15T13:10:56;7.00;;;6.40;;
17852;SDS011;9052;53.494;14.376;2023-05-15T13:13:27;5.97;;;5.40;;
17852;SDS011;9052;53.494;14.376;2023-05-15T13:16:04;7.50;;;5.60;;
17852;SDS011;9052;53.494;14.376;2023-05-15T13:18:31;5.23;;;4.73;;
17852;SDS011;9052;53.494;14.376;2023-05-15T13:20:57;6.87;;;4.90;;
17852;SDS011;9052;53.494;14.376;2023-05-15T13:23:24;5.93;;;4.00;;
17852;SDS011;9052;53.494;14.376;2023-05-15T13:25:51;5.00;;;4.50;;
17852;SDS011;9052;53.494;14.376;2023-05-15T13:28:17;4.40;;;4.00;;
17852;SDS011;9052;53.494;14.376;2023-05-15T13:30:45;5.10;;;4.47;;
17852;SDS011;9052;53.494;14.376;2023-05-15T13:33:12;4.53;;;4.13;;
17852;SDS011;9052;53.494;14.376;2023-05-15T13:35:39;4.80;;;4.20;;
17852;SDS011;9052;53.494;14.376;2023-05-15T13:38:07;8.83;;;4.73;;
17852;SDS011;9052;53.494;14.376;2023-05-15T13:40:35;7.00;;;3.87;;
17852;SDS011;9052;53.494;14.376;2023-05-15T13:43:01;9.00;;;4.70;;
17852;SDS011;9052;53.494;14.376;2023-05-15T13:45:30;5.17;;;4.50;;
17852;SDS011;9052;53.494;14.376;2023-05-15T13:47:58;6.80;;;3.97;;
17852;SDS011;9052;53.494;14.376;2023-05-15T13:50:25;6.53;;;4.20;;
17852;SDS011;9052;53.494;14.376;2023-05-15T13:52:52;15.70;;;4.00;;
17852;SDS011;9052;53.494;14.376;2023-05-15T13:55:20;12.20;;;5.00;;
17852;SDS011;9052;53.494;14.376;2023-05-15T13:57:46;7.37;;;5.40;;
17852;SDS011;9052;53.494;14.376;2023-05-15T14:00:13;10.47;;;6.10;;
17852;SDS011;9052;53.494;14.376;2023-05-15T14:02:40;14.00;;;6.87;;
17852;SDS011;9052;53.494;14.376;2023-05-15T14:05:08;7.57;;;6.93;;
17852;SDS011;9052;53.494;14.376;2023-05-15T14:07:36;11.50;;;7.60;;
17852;SDS011;9052;53.494;14.376;2023-05-15T14:10:03;17.73;;;7.40;;
17852;SDS011;9052;53.494;14.376;2023-05-15T14:12:30;9.37;;;7.93;;
17852;SDS011;9052;53.494;14.376;2023-05-15T14:14:57;9.53;;;8.63;;
17852;SDS011;9052;53.494;14.376;2023-05-15T14:17:25;9.80;;;8.57;;
17852;SDS011;9052;53.494;14.376;2023-05-15T14:19:52;12.40;;;9.00;;
17852;SDS011;9052;53.494;14.376;2023-05-15T14:22:21;9.90;;;9.03;;
17852;SDS011;9052;53.494;14.376;2023-05-15T14:24:49;11.47;;;8.53;;
17852;SDS011;9052;53.494;14.376;2023-05-15T14:27:15;6.60;;;5.93;;
17852;SDS011;9052;53.494;14.376;2023-05-15T14:29:43;7.03;;;5.97;;
17852;SDS011;9052;53.494;14.376;2023-05-15T14:32:10;7.47;;;6.77;;
17852;SDS011;9052;53.494;14.376;2023-05-15T14:34:36;6.70;;;6.03;;
17852;SDS011;9052;53.494;14.376;2023-05-15T14:37:03;6.10;;;5.07;;